Estación de Mayorquina

Ultimos registro cada 15 minutos 84
Estación Fecha / Hora Temperatura Humedad Lluvia Velocidad Dirección Radiación Presion
84 Mayorquina 30-08-2026 20:45 15,3 80 0 0,9 233 0 1018,8
83 Mayorquina 30-08-2026 20:30 15,3 80 0 1,3 260 0 1018,6
82 Mayorquina 30-08-2026 20:15 15,4 80 0 0,9 244 0 1018,5
81 Mayorquina 30-08-2026 20:00 15,5 79 0 1,3 258 0 1018,3
80 Mayorquina 30-08-2026 19:45 15,5 79 0 1,3 233 0 1018,1
79 Mayorquina 30-08-2026 19:30 15,3 80 0 1,3 258 0 1017,6
78 Mayorquina 30-08-2026 19:15 15,5 78 0 1,8 252 0 1017,6
77 Mayorquina 30-08-2026 19:00 15,9 77 0 1,8 241 0 1017,2
76 Mayorquina 30-08-2026 18:45 16,4 73 0 0,9 235 0 1017,1
75 Mayorquina 30-08-2026 18:30 16,8 71 0 3,1 225 0 1016,8
74 Mayorquina 30-08-2026 18:15 17,4 69 0 1,3 256 12 1016,4
73 Mayorquina 30-08-2026 18:00 18 67 0 4 260 25 1016,3
72 Mayorquina 30-08-2026 17:45 18,7 65 0 3,1 238 56 1016,2
71 Mayorquina 30-08-2026 17:30 19,6 62 0 4 235 74 1016,2
70 Mayorquina 30-08-2026 17:15 20,4 60 0 0,9 245 176 1015,9
69 Mayorquina 30-08-2026 17:00 21 58 0 2,2 244 223 1015,7
68 Mayorquina 30-08-2026 16:45 21,8 56 0 3,1 239 279 1015,6
67 Mayorquina 30-08-2026 16:30 22,2 55 0 3,1 278 329 1015,6
66 Mayorquina 30-08-2026 16:15 22,5 55 0 3,6 249 383 1015,6
65 Mayorquina 30-08-2026 16:00 22,5 54 0 1,8 239 434 1015,4
64 Mayorquina 30-08-2026 15:45 22,6 55 0 0,9 288 496 1015,7
63 Mayorquina 30-08-2026 15:30 21,4 58 0 3,1 256 552 1015,4
62 Mayorquina 30-08-2026 15:15 21,4 57 0 1,3 213 148 1015,6
61 Mayorquina 30-08-2026 15:00 22,2 55 0 2,7 244 218 1015,7
60 Mayorquina 30-08-2026 14:45 22,7 55 0 0,4 232 687 1015,5
59 Mayorquina 30-08-2026 14:30 22,4 53 0 1,8 247 169 1015,9
58 Mayorquina 30-08-2026 14:15 23,3 51 0 0,4 271 775 1016,1
57 Mayorquina 30-08-2026 14:00 22,8 52 0 1,8 249 770 1016,3
56 Mayorquina 30-08-2026 13:45 22,5 52 0 1,3 233 766 1016,3
55 Mayorquina 30-08-2026 13:30 22,2 52 0 1,8 251 153 1016,5
54 Mayorquina 30-08-2026 13:15 22,2 54 0 2,7 240 830 1016,8
53 Mayorquina 30-08-2026 13:00 21,2 57 0 2,2 251 896 1016,8
52 Mayorquina 30-08-2026 12:45 20,8 58 0 0,4 244 218 1017
51 Mayorquina 30-08-2026 12:30 20,2 60 0 0,4 291 547 1017,3
50 Mayorquina 30-08-2026 12:15 20,4 58 0 0,4 265 308 1017,5
49 Mayorquina 30-08-2026 12:00 21,3 56 0 1,3 256 993 1017,6
48 Mayorquina 30-08-2026 11:45 20,9 58 0 0,4 301 475 1017,8
47 Mayorquina 30-08-2026 11:30 20,3 61 0 0,9 209 322 1017,7
46 Mayorquina 30-08-2026 11:15 19,6 63 0 1,8 346 422 1017,8
45 Mayorquina 30-08-2026 11:00 18,9 67 0 0,4 292 404 1017,9
44 Mayorquina 30-08-2026 10:45 18,6 65 0 0,9 303 392 1018
43 Mayorquina 30-08-2026 10:30 18,5 68 0 0 353 408 1018
42 Mayorquina 30-08-2026 10:15 18,1 70 0 1,3 288 348 1018,1
41 Mayorquina 30-08-2026 10:00 17,5 71 0 0,9 245 394 1018,2
40 Mayorquina 30-08-2026 09:45 17,3 74 0 0,4 347 306 1018,2
39 Mayorquina 30-08-2026 09:30 16,9 77 0 0,4 271 220 1018,3
38 Mayorquina 30-08-2026 09:15 16,6 79 0 0,4 158 190 1018,2
37 Mayorquina 30-08-2026 09:00 16,1 81 0 0,9 246 174 1017,9
36 Mayorquina 30-08-2026 08:45 15,5 85 0 0 237 149 1017,7
35 Mayorquina 30-08-2026 08:30 14,9 88 0 0,4 218 95 1017,6
34 Mayorquina 30-08-2026 08:15 14,4 91 0 1,3 251 83 1017,5
33 Mayorquina 30-08-2026 08:00 13,9 92 0 1,3 239 62 1017,3
32 Mayorquina 30-08-2026 07:45 13,2 94 0 0 274 46 1017,3
31 Mayorquina 30-08-2026 07:30 12,6 94 0 0 299 9 1017,3
30 Mayorquina 30-08-2026 07:15 12 94 0 0 342 5 1017,2
29 Mayorquina 30-08-2026 07:00 11,7 93 0 0 16 0 1017,1
28 Mayorquina 30-08-2026 06:45 11,4 93 0 0 16 0 1016,9
27 Mayorquina 30-08-2026 06:30 11,3 92 0 0 16 0 1016,8
26 Mayorquina 30-08-2026 06:15 11,7 90 0 0 319 0 1016,5
25 Mayorquina 30-08-2026 06:00 12,2 89 0 0 319 0 1016,4
24 Mayorquina 30-08-2026 05:45 12,8 90 0 0 319 0 1016,4
23 Mayorquina 30-08-2026 05:30 13,2 89 0 0 293 0 1016,2
22 Mayorquina 30-08-2026 05:15 13,3 92 0 0,9 245 0 1015,8
21 Mayorquina 30-08-2026 05:00 12,4 94 0 0,9 343 0 1015,9
20 Mayorquina 30-08-2026 04:45 11,7 93 0 0,4 137 0 1015,8
19 Mayorquina 30-08-2026 04:30 11,4 92 0 0 149 0 1015,4
18 Mayorquina 30-08-2026 04:15 11,6 92 0 0 358 0 1015,2
17 Mayorquina 30-08-2026 04:00 11,9 92 0 0 358 0 1015,5
16 Mayorquina 30-08-2026 03:45 12,2 92 0 0 18 0 1015,6
15 Mayorquina 30-08-2026 03:30 12,3 93 0 0 18 0 1015,3
14 Mayorquina 30-08-2026 03:15 12,1 93 0 0 18 0 1015,3
13 Mayorquina 30-08-2026 03:00 12 91 0 0 248 0 1015,6
12 Mayorquina 30-08-2026 02:45 12,2 91 0 0 248 0 1015,6
11 Mayorquina 30-08-2026 02:30 12,4 90 0 0 248 0 1015,8
10 Mayorquina 30-08-2026 02:15 12,7 91 0 0 248 0 1015,8
9 Mayorquina 30-08-2026 02:00 12,8 92 0 0 248 0 1015,9
8 Mayorquina 30-08-2026 01:45 12,4 91 0 0,4 211 0 1016
7 Mayorquina 30-08-2026 01:30 12,7 90 0 0 175 0 1016,1
6 Mayorquina 30-08-2026 01:15 12,8 90 0 0 131 0 1016,1
5 Mayorquina 30-08-2026 01:00 13 89 0 0 131 0 1016,2
4 Mayorquina 30-08-2026 00:45 13,3 89 0 0 131 0 1016,2
3 Mayorquina 30-08-2026 00:30 13,6 88 0 0 131 0 1016,1
2 Mayorquina 30-08-2026 00:15 13,8 89 0 0 131 0 1015,7
1 Mayorquina 30-08-2026 00:00 13,9 88 0 0 131 0 1015,6